Velma, Mississippi
Current Conditions -  °F | °C
As of 7:15 PM on Monday 22 Dec 2014 (Local Time) from KUOX Reporting Station
Haze Haze  
Wind Chill: 54°   Ceiling: 300
Heat Index: 54°   Visibility: 5mi
Dew Point: 54°   Wind: 9mph
Humidity: 100%   Direction: 170°S
Pressure: 29.68"   Gusts: NA
Location:  34.142°N, 89.6332°W
Report Text: KUOX 230115Z AUTO 17008KT 5SM BR OVC003 12/12 A2968 RMK AO2 PWINO PNO
Loading
Personal Weather Stations






























Interactive Weather Map New forecast layout! Learn more

10-Day Weather Forecast

Advertisements
Track Severe Weather on mobile